KSFB/SFB METAR and TAF weather

Enter ICAO airport designator
Station Type Date Time Source
KSFB METAR 2019/12/13 03:31 UTC NOAA

KSFB 130331Z 11006KT 3SM RA BR SCT009 BKN012 OVC026 21/20 A3017 RMK AO2 T02110200 PNO $


Station Type Date Time Source
KSFB Decoded METAR 2019/12/13 03:31 UTC NOAA

ORLANDO SANFORD AIRPORT, FL, United States (KSFB) 28-47N 081-15W
Dec 12, 2019 - 10:31 PM EST / 2019.12.13 0331 UTC
Wind: from the ESE (110 degrees) at 7 MPH (6 KT):0
Visibility: 3 mile(s):0
Sky conditions: overcast
Weather: rain; mist
Temperature: 70.0 F (21.1 C)
Dew Point: 68.0 F (20.0 C)
Relative Humidity: 93%
Pressure (altimeter): 30.17 in. Hg (1021 hPa)
ob: KSFB 130331Z 11006KT 3SM RA BR SCT009 BKN012 OVC026 21/20 A3017 RMK AO2 T02110200 PNO
cycle: 3

Station Type Date Time Source
KSFB TAF 2019/12/12 18:45 UTC NOAA

TAF KSFB 121742Z 1218/1318 05012KT P6SM BKN025 OVC040
FM122100 07013G20KT P6SM VCSH SCT015 BKN025 OVC050
TEMPO 1221/1224 3SM RA BR BKN010 OVC020
FM130400 05007KT P6SM SCT020 BKN040 OVC060
FM130800 10005KT P6SM FEW030 BKN060 OVC120
FM131400 17008KT P6SM SCT030 BKN050 OVC100

Example: see airport list